createdAt,value
2019-03-23T00:02:36.890Z,99.90
2019-03-23T00:05:16.360Z,99.90
2019-03-23T00:07:54.559Z,99.90
2019-03-23T00:10:35.957Z,99.90
2019-03-23T00:13:16.277Z,99.90
2019-03-23T00:15:56.638Z,99.90
2019-03-23T00:18:37.666Z,99.90
2019-03-23T00:21:16.914Z,99.90
2019-03-23T00:23:55.894Z,99.90
2019-03-23T00:26:36.084Z,99.90
2019-03-23T00:29:17.055Z,99.90
2019-03-23T00:31:55.302Z,99.90
2019-03-23T00:34:34.269Z,99.90
2019-03-23T00:37:13.038Z,99.90
2019-03-23T00:39:51.247Z,99.90
2019-03-23T00:42:34.499Z,99.90
2019-03-23T00:45:14.786Z,99.90
2019-03-23T00:47:53.362Z,99.90
2019-03-23T00:50:33.725Z,99.90
2019-03-23T00:53:19.537Z,99.90
2019-03-23T00:55:59.682Z,99.90
2019-03-23T00:58:38.799Z,99.90
2019-03-23T01:01:20.627Z,99.90
2019-03-23T01:04:00.777Z,99.90
2019-03-23T01:06:39.960Z,99.90
2019-03-23T01:09:18.815Z,99.90
2019-03-23T01:11:57.443Z,99.90
2019-03-23T01:14:35.611Z,99.90
2019-03-23T01:17:14.588Z,99.90
2019-03-23T01:19:54.581Z,99.90
2019-03-23T01:22:35.098Z,99.90
2019-03-23T01:25:17.267Z,99.90
2019-03-23T01:27:57.359Z,99.40
2019-03-23T01:30:36.525Z,98.80
2019-03-23T01:33:20.258Z,97.90
2019-03-23T01:35:59.769Z,97.40
2019-03-23T01:38:41.895Z,97.40
2019-03-23T01:41:21.060Z,96.40
2019-03-23T01:44:02.040Z,97.30
2019-03-23T01:46:41.458Z,97.00
2019-03-23T01:49:21.802Z,96.70
2019-03-23T01:52:00.966Z,96.50
2019-03-23T01:54:39.238Z,96.40
2019-03-23T01:57:26.359Z,95.70
2019-03-23T02:00:07.896Z,94.90
2019-03-23T02:02:47.691Z,95.00
2019-03-23T02:05:31.650Z,94.70
2019-03-23T02:08:14.746Z,94.40
2019-03-23T02:10:55.458Z,93.80
2019-03-23T02:13:36.644Z,93.90
2019-03-23T02:16:16.205Z,94.70
2019-03-23T02:18:55.197Z,95.10
2019-03-23T02:21:35.592Z,94.70
2019-03-23T02:24:14.298Z,94.60
2019-03-23T02:26:53.271Z,93.30
2019-03-23T02:29:33.768Z,91.40
2019-03-23T02:32:12.680Z,91.40
2019-03-23T02:34:51.738Z,91.50
2019-03-23T02:37:32.527Z,91.40
2019-03-23T02:40:12.504Z,90.10
2019-03-23T02:42:53.708Z,88.90
2019-03-23T02:45:32.319Z,87.60
2019-03-23T02:48:11.129Z,87.60
2019-03-23T02:50:50.576Z,85.90
2019-03-23T02:53:31.283Z,86.50
2019-03-23T02:56:10.406Z,85.50
2019-03-23T02:58:49.144Z,81.80
2019-03-23T03:01:31.948Z,83.00
2019-03-23T03:04:16.501Z,83.30
2019-03-23T03:06:57.715Z,84.80
2019-03-23T03:09:41.370Z,85.30
2019-03-23T03:12:23.073Z,85.60
2019-03-23T03:15:03.412Z,85.00
2019-03-23T03:17:42.508Z,83.50
2019-03-23T03:20:21.404Z,83.40
2019-03-23T03:23:04.660Z,82.10
2019-03-23T03:25:44.705Z,81.70
2019-03-23T03:28:24.503Z,83.00
2019-03-23T03:31:03.426Z,81.40
2019-03-23T03:33:42.827Z,82.40
2019-03-23T03:36:25.072Z,82.00
2019-03-23T03:39:03.889Z,83.00
2019-03-23T03:41:43.543Z,83.50
2019-03-23T03:44:23.624Z,84.00
2019-03-23T03:47:08.519Z,83.70
2019-03-23T03:49:55.958Z,82.30
2019-03-23T03:52:36.674Z,83.40
2019-03-23T03:55:16.560Z,83.20
2019-03-23T03:57:58.671Z,80.60
2019-03-23T04:00:37.778Z,79.20
2019-03-23T04:03:17.634Z,78.70
2019-03-23T04:05:57.903Z,78.70
2019-03-23T04:08:38.348Z,80.70
2019-03-23T04:11:18.057Z,79.00
2019-03-23T04:13:58.861Z,77.10
2019-03-23T04:16:37.143Z,76.80
2019-03-23T04:19:16.279Z,76.90
2019-03-23T04:22:03.825Z,77.00
2019-03-23T04:24:43.066Z,76.40
2019-03-23T04:27:21.350Z,75.80
2019-03-23T04:30:02.610Z,76.40
2019-03-23T04:32:42.286Z,74.60
2019-03-23T04:35:20.522Z,73.50
2019-03-23T04:37:59.248Z,74.70
2019-03-23T04:40:39.196Z,73.70
2019-03-23T04:43:18.392Z,73.20
2019-03-23T04:45:58.463Z,75.80
2019-03-23T04:48:38.428Z,71.50
2019-03-23T04:51:17.598Z,72.80
2019-03-23T04:53:58.520Z,73.60
2019-03-23T04:56:37.792Z,75.90
2019-03-23T04:59:16.556Z,76.20
2019-03-23T05:01:57.936Z,77.90
2019-03-23T05:04:41.125Z,77.20
2019-03-23T05:07:18.210Z,77.50
2019-03-23T05:09:59.821Z,77.60
2019-03-23T05:12:42.435Z,76.40
2019-03-23T05:15:20.485Z,78.20
2019-03-23T05:18:00.427Z,77.10
2019-03-23T05:20:41.257Z,77.20
2019-03-23T05:23:20.323Z,77.60
2019-03-23T05:25:59.710Z,76.20
2019-03-23T05:28:38.138Z,76.90
2019-03-23T05:31:17.396Z,75.10
2019-03-23T05:33:56.160Z,74.90
2019-03-23T05:36:35.360Z,74.80
2019-03-23T05:39:14.429Z,74.30
2019-03-23T05:41:55.208Z,74.30
2019-03-23T05:44:35.038Z,73.00
2019-03-23T05:47:16.602Z,73.40
2019-03-23T05:49:57.191Z,72.90
2019-03-23T05:52:36.085Z,74.20
2019-03-23T05:55:15.623Z,73.50
2019-03-23T05:57:55.713Z,73.80
2019-03-23T06:00:35.138Z,75.60
2019-03-23T06:03:21.143Z,75.70
2019-03-23T06:06:00.584Z,74.30
2019-03-23T06:08:39.681Z,76.90
2019-03-23T06:11:18.705Z,78.40
2019-03-23T06:13:56.706Z,78.30
2019-03-23T06:16:39.491Z,75.80
2019-03-23T06:19:18.915Z,74.40
2019-03-23T06:22:09.097Z,75.10
2019-03-23T06:24:47.697Z,78.10
2019-03-23T06:27:27.507Z,78.20
2019-03-23T06:30:10.786Z,76.50
2019-03-23T06:32:49.503Z,77.00
2019-03-23T06:35:29.024Z,77.20
2019-03-23T06:38:08.994Z,78.50
2019-03-23T06:40:55.315Z,82.00
2019-03-23T06:43:35.275Z,81.50
2019-03-23T06:46:19.443Z,83.50
2019-03-23T06:49:02.049Z,76.40
2019-03-23T06:51:42.036Z,79.80
2019-03-23T06:54:23.722Z,79.10
2019-03-23T06:57:03.625Z,80.90
2019-03-23T06:59:44.121Z,81.60
2019-03-23T07:02:28.125Z,81.30
2019-03-23T07:05:06.724Z,79.20
2019-03-23T07:07:45.887Z,79.80
2019-03-23T07:10:26.171Z,75.40
2019-03-23T07:13:07.709Z,77.30
2019-03-23T07:15:51.988Z,74.20
2019-03-23T07:18:31.229Z,73.20
2019-03-23T07:23:52.054Z,70.30
2019-03-23T07:26:32.141Z,70.20
2019-03-23T07:29:11.757Z,69.10
2019-03-23T07:31:51.375Z,69.40
2019-03-23T07:34:35.965Z,67.70
2019-03-23T07:37:14.413Z,69.40
2019-03-23T07:40:00.461Z,69.60
2019-03-23T07:42:40.601Z,67.30
2019-03-23T07:45:21.484Z,67.00
2019-03-23T07:48:01.422Z,66.90
2019-03-23T07:50:40.021Z,67.30
2019-03-23T07:53:19.164Z,68.40
2019-03-23T07:55:58.259Z,64.40
2019-03-23T07:58:38.869Z,66.70
2019-03-23T08:01:17.544Z,72.60
2019-03-23T08:03:58.018Z,72.70
2019-03-23T08:06:40.803Z,72.80
2019-03-23T08:09:23.495Z,73.40
2019-03-23T08:11:58.919Z,71.00
2019-03-23T08:14:38.937Z,74.40
2019-03-23T08:17:18.115Z,75.30
2019-03-23T08:19:56.228Z,74.80
2019-03-23T08:22:35.930Z,77.50
2019-03-23T08:25:14.981Z,77.20
2019-03-23T08:27:56.771Z,77.80
2019-03-23T08:30:45.226Z,76.10
2019-03-23T08:33:25.546Z,76.60
2019-03-23T08:36:11.569Z,75.30
2019-03-23T08:38:54.030Z,75.40
2019-03-23T08:41:35.169Z,78.40
2019-03-23T08:44:17.072Z,77.10
2019-03-23T08:46:56.195Z,78.80
2019-03-23T08:49:37.949Z,78.60
2019-03-23T08:52:17.144Z,80.60
2019-03-23T08:54:56.068Z,78.80
2019-03-23T08:57:34.352Z,80.40
2019-03-23T09:00:17.070Z,77.20
2019-03-23T09:03:03.832Z,79.10
2019-03-23T09:05:42.480Z,81.10
2019-03-23T09:08:24.205Z,81.20
2019-03-23T09:11:04.840Z,80.60
2019-03-23T09:13:44.294Z,83.10
2019-03-23T09:16:23.315Z,84.40
2019-03-23T09:19:05.421Z,83.30
2019-03-23T09:21:44.985Z,85.00
2019-03-23T09:24:23.060Z,84.70
2019-03-23T09:27:02.090Z,85.40
2019-03-23T09:29:41.469Z,87.00
2019-03-23T09:32:23.599Z,86.80
2019-03-23T09:35:03.726Z,86.40
2019-03-23T09:37:45.137Z,85.00
2019-03-23T09:40:23.891Z,85.10
2019-03-23T09:43:02.804Z,86.00
2019-03-23T09:45:41.806Z,85.50
2019-03-23T09:48:20.862Z,85.10
2019-03-23T09:51:00.196Z,84.50
2019-03-23T09:53:41.045Z,83.90
2019-03-23T09:56:20.998Z,84.90
2019-03-23T09:58:59.383Z,83.60
2019-03-23T10:01:41.920Z,85.70
2019-03-23T10:04:20.566Z,84.70
2019-03-23T10:07:02.329Z,85.50
2019-03-23T10:09:41.559Z,87.90
2019-03-23T10:12:22.740Z,86.90
2019-03-23T10:15:02.071Z,89.60
2019-03-23T10:17:41.994Z,88.20
2019-03-23T10:20:21.131Z,87.30
2019-03-23T10:23:02.120Z,89.50
2019-03-23T10:25:42.036Z,90.20
2019-03-23T10:28:22.544Z,89.60
2019-03-23T10:31:02.504Z,90.30
2019-03-23T10:33:43.330Z,89.30
2019-03-23T10:36:24.195Z,90.40
2019-03-23T10:39:06.907Z,90.40
2019-03-23T10:41:46.789Z,90.40
2019-03-23T10:44:26.482Z,91.40
2019-03-23T10:47:15.341Z,92.00
2019-03-23T10:49:56.543Z,91.20
2019-03-23T10:52:37.025Z,92.50
2019-03-23T11:30:01.612Z,91.70
2019-03-23T11:32:45.287Z,97.00
2019-03-23T11:35:26.782Z,96.60
2019-03-23T11:38:22.860Z,97.60
2019-03-23T11:41:23.376Z,98.00
2019-03-23T11:52:09.383Z,98.30
2019-03-23T11:54:48.619Z,98.40
2019-03-23T11:57:27.273Z,98.10
2019-03-23T12:00:09.153Z,98.40
2019-03-23T12:02:49.079Z,98.70
2019-03-23T12:05:28.494Z,99.00
2019-03-23T12:08:07.283Z,99.10
2019-03-23T12:10:45.782Z,99.10
2019-03-23T12:13:25.145Z,99.30
2019-03-23T12:16:04.278Z,98.60
2019-03-23T12:18:44.167Z,99.00
2019-03-23T12:21:23.766Z,99.10
2019-03-23T12:24:03.067Z,99.20
2019-03-23T12:26:42.001Z,99.40
2019-03-23T12:29:22.032Z,99.50
2019-03-23T12:32:00.588Z,99.50
2019-03-23T12:34:39.735Z,99.40
2019-03-23T12:37:18.137Z,99.40
2019-03-23T12:39:57.565Z,99.50
2019-03-23T12:42:37.876Z,99.40
2019-03-23T12:45:17.925Z,99.30
2019-03-23T12:47:59.087Z,99.10
2019-03-23T12:50:38.478Z,99.30
2019-03-23T12:53:19.382Z,98.50
2019-03-23T12:56:00.864Z,98.50
2019-03-23T12:58:48.126Z,99.20
2019-03-23T13:01:28.494Z,98.90
2019-03-23T13:04:08.832Z,99.20
2019-03-23T13:06:48.084Z,99.30
2019-03-23T13:09:45.643Z,99.50
2019-03-23T13:12:24.916Z,99.70
2019-03-23T13:15:04.002Z,99.60
2019-03-23T13:17:43.499Z,99.90
2019-03-23T13:20:25.543Z,99.90
2019-03-23T13:23:03.136Z,99.90
2019-03-23T13:25:42.527Z,99.90
2019-03-23T13:28:31.366Z,99.80
2019-03-23T13:31:10.137Z,98.20
2019-03-23T13:33:49.524Z,99.90
2019-03-23T13:36:30.863Z,99.90
2019-03-23T13:39:11.554Z,99.90
2019-03-23T13:41:51.820Z,99.90
2019-03-23T13:44:33.448Z,99.90
2019-03-23T13:47:15.068Z,99.90
2019-03-23T13:49:54.343Z,99.90
2019-03-23T13:52:33.026Z,99.50
2019-03-23T13:55:14.308Z,99.00
2019-03-23T13:57:53.413Z,99.10
2019-03-23T14:00:32.475Z,99.90
2019-03-23T14:03:12.158Z,99.90
2019-03-23T14:05:51.183Z,99.70
2019-03-23T14:08:29.558Z,99.60
2019-03-23T14:11:08.986Z,99.90
2019-03-23T14:13:47.864Z,99.90
2019-03-23T14:16:26.307Z,99.90
2019-03-23T14:19:05.545Z,99.90
2019-03-23T14:21:46.336Z,99.90
2019-03-23T14:24:24.685Z,99.90
2019-03-23T14:27:05.501Z,99.90
2019-03-23T14:29:45.496Z,99.90
2019-03-23T14:32:25.978Z,99.90
2019-03-23T14:35:04.976Z,99.90
2019-03-23T14:37:44.213Z,99.90
2019-03-23T14:40:22.929Z,99.90
2019-03-23T14:43:03.085Z,99.90
2019-03-23T14:45:44.035Z,99.90
2019-03-23T14:48:25.562Z,99.90
2019-03-23T14:51:04.413Z,99.90
2019-03-23T14:53:43.998Z,99.90
2019-03-23T14:56:24.314Z,99.90
2019-03-23T14:59:03.137Z,99.90
2019-03-23T15:01:41.753Z,99.90
2019-03-23T15:04:20.733Z,99.90
2019-03-23T15:07:00.275Z,99.90
2019-03-23T15:09:40.574Z,99.90
2019-03-23T15:12:19.426Z,99.90
2019-03-23T15:14:58.502Z,99.90
2019-03-23T15:17:37.555Z,99.90
2019-03-23T15:20:16.763Z,99.90
2019-03-23T15:22:54.884Z,99.90
2019-03-23T15:25:33.930Z,99.90
2019-03-23T15:28:13.982Z,99.90
2019-03-23T15:30:52.601Z,99.90
2019-03-23T15:33:31.104Z,99.90
2019-03-23T15:36:11.787Z,99.90
2019-03-23T15:38:53.809Z,99.90
2019-03-23T15:41:33.426Z,99.90
2019-03-23T15:44:12.037Z,99.90
2019-03-23T15:46:51.467Z,99.90
2019-03-23T15:49:30.243Z,99.90
2019-03-23T15:52:08.707Z,99.90
2019-03-23T15:54:46.912Z,99.90
2019-03-23T15:57:27.892Z,99.90
2019-03-23T16:00:09.311Z,99.90
2019-03-23T16:02:48.380Z,99.90
2019-03-23T16:05:27.342Z,99.90
2019-03-23T16:08:06.861Z,99.90
2019-03-23T16:10:46.742Z,99.90
2019-03-23T16:13:26.273Z,99.90
2019-03-23T16:16:05.542Z,99.90
2019-03-23T16:18:47.655Z,99.90
2019-03-23T16:21:23.920Z,99.90
2019-03-23T16:24:02.339Z,99.90
2019-03-23T16:26:40.682Z,99.90
2019-03-23T16:29:26.631Z,99.90
2019-03-23T16:32:05.391Z,99.90
2019-03-23T16:34:44.596Z,99.90
2019-03-23T16:37:24.370Z,99.90
2019-03-23T16:40:02.794Z,99.90
2019-03-23T16:42:45.439Z,99.90
2019-03-23T16:45:22.873Z,99.90
2019-03-23T16:48:01.036Z,99.90
2019-03-23T16:50:41.167Z,99.90
2019-03-23T16:53:19.614Z,99.90
2019-03-23T16:55:58.677Z,99.90
2019-03-23T16:58:38.070Z,99.90
2019-03-23T17:01:18.035Z,99.90
2019-03-23T17:04:02.890Z,99.90
2019-03-23T17:06:46.513Z,99.90
2019-03-23T17:09:28.065Z,99.90
2019-03-23T17:12:08.322Z,99.90
2019-03-23T17:14:49.612Z,99.90
2019-03-23T17:17:29.794Z,99.90
2019-03-23T17:20:11.430Z,99.90
2019-03-23T17:22:51.955Z,99.90
2019-03-23T17:25:30.958Z,99.90
2019-03-23T17:28:10.325Z,99.90
2019-03-23T17:30:49.105Z,99.90
2019-03-23T17:33:34.338Z,99.90
2019-03-23T17:36:12.209Z,99.90
2019-03-23T17:38:51.877Z,99.90
2019-03-23T17:41:30.610Z,99.90
2019-03-23T17:44:12.300Z,99.90
2019-03-23T17:46:51.446Z,99.90
2019-03-23T17:49:31.288Z,99.90
2019-03-23T17:52:09.525Z,99.90
2019-03-23T17:54:50.975Z,99.90
2019-03-23T17:57:30.462Z,99.90
2019-03-23T18:00:14.201Z,99.90
2019-03-23T18:02:52.714Z,99.90
2019-03-23T18:05:31.479Z,99.90
2019-03-23T18:08:10.335Z,99.90
2019-03-23T18:10:50.213Z,99.90
2019-03-23T18:13:28.264Z,99.90
2019-03-23T18:16:08.258Z,99.90
2019-03-23T18:18:47.708Z,99.90
2019-03-23T18:21:26.192Z,99.90
2019-03-23T18:24:05.217Z,99.90
2019-03-23T18:26:44.426Z,99.90
2019-03-23T18:29:24.260Z,99.90
2019-03-23T18:32:03.804Z,99.90
2019-03-23T18:34:46.816Z,99.90
2019-03-23T18:37:26.473Z,99.90
2019-03-23T18:40:08.284Z,99.90
2019-03-23T18:42:45.668Z,99.90
2019-03-23T18:45:25.633Z,99.90
2019-03-23T18:48:05.775Z,99.90
2019-03-23T18:50:45.678Z,99.90
2019-03-23T18:53:24.665Z,99.90
2019-03-23T18:56:03.272Z,99.90
2019-03-23T18:58:42.319Z,99.90
2019-03-23T19:01:21.877Z,99.90
2019-03-23T19:04:00.822Z,99.90
2019-03-23T19:06:39.435Z,99.90
2019-03-23T19:09:19.076Z,99.90
2019-03-23T19:11:57.598Z,99.90
2019-03-23T19:14:36.690Z,99.90
2019-03-23T19:17:15.347Z,99.90
2019-03-23T19:19:55.083Z,99.90
2019-03-23T19:22:34.139Z,99.90
2019-03-23T19:25:17.230Z,99.90
2019-03-23T19:27:54.662Z,99.90
2019-03-23T19:30:37.348Z,99.90
2019-03-23T19:33:16.774Z,99.90
2019-03-23T19:35:56.922Z,99.90
2019-03-23T19:38:35.384Z,99.90
2019-03-23T19:41:17.027Z,99.90
2019-03-23T19:43:55.372Z,99.90
2019-03-23T19:46:34.821Z,99.90
2019-03-23T19:49:13.585Z,99.90
2019-03-23T19:51:53.561Z,99.90
2019-03-23T19:54:33.791Z,99.90
2019-03-23T19:57:13.757Z,99.90
2019-03-23T19:59:52.704Z,99.90
2019-03-23T20:02:31.927Z,99.90
2019-03-23T20:05:10.900Z,99.90
2019-03-23T20:07:49.439Z,99.90
2019-03-23T20:10:31.585Z,99.90
2019-03-23T20:13:09.672Z,99.90
2019-03-23T20:15:48.392Z,99.90
2019-03-23T20:18:28.571Z,99.90
2019-03-23T20:21:08.168Z,99.90
2019-03-23T20:23:47.206Z,99.90
2019-03-23T20:26:26.922Z,99.90
2019-03-23T20:29:09.188Z,99.90
2019-03-23T20:31:47.542Z,99.90
2019-03-23T20:34:26.411Z,99.90
2019-03-23T20:37:04.626Z,99.90
2019-03-23T20:39:43.366Z,99.90
2019-03-23T20:42:22.483Z,99.90
2019-03-23T20:45:03.971Z,99.90
2019-03-23T20:47:43.170Z,99.90
2019-03-23T20:50:21.455Z,99.90
2019-03-23T20:53:00.215Z,99.90
2019-03-23T20:55:40.181Z,99.90
2019-03-23T20:58:20.024Z,99.90
2019-03-23T21:01:00.376Z,99.90
2019-03-23T21:03:39.646Z,99.90
2019-03-23T21:06:19.272Z,99.90
2019-03-23T21:08:57.557Z,99.90
2019-03-23T21:11:36.874Z,99.90
2019-03-23T21:14:20.097Z,99.90
2019-03-23T21:16:58.689Z,99.90
2019-03-23T21:19:37.428Z,99.90
2019-03-23T21:22:17.569Z,99.90
2019-03-23T21:24:56.021Z,99.90
2019-03-23T21:27:36.700Z,99.90
2019-03-23T21:30:17.841Z,99.90
2019-03-23T21:32:59.554Z,99.90
2019-03-23T21:35:39.096Z,99.90
2019-03-23T21:38:19.669Z,99.90
2019-03-23T21:41:06.796Z,99.90
2019-03-23T21:43:45.745Z,99.90
2019-03-23T21:46:24.396Z,99.90
2019-03-23T21:49:04.035Z,99.90
2019-03-23T21:51:42.534Z,99.90
2019-03-23T21:54:23.093Z,99.90
2019-03-23T21:57:01.346Z,99.90
2019-03-23T21:59:40.954Z,99.90
2019-03-23T22:02:21.281Z,99.90
2019-03-23T22:05:02.325Z,99.90
2019-03-23T22:07:42.269Z,99.90
2019-03-23T22:10:23.061Z,99.90
2019-03-23T22:13:02.789Z,99.90
2019-03-23T22:15:42.404Z,99.90
2019-03-23T22:18:21.278Z,99.90
2019-03-23T22:21:01.436Z,99.90
2019-03-23T22:23:40.181Z,99.90
2019-03-23T22:26:19.574Z,99.90
2019-03-23T22:28:58.800Z,99.90
2019-03-23T22:31:38.796Z,99.90
2019-03-23T22:34:19.967Z,99.90
2019-03-23T22:36:58.807Z,99.90
2019-03-23T22:39:38.708Z,99.90
2019-03-23T22:42:17.909Z,99.90
2019-03-23T22:44:57.043Z,99.90
2019-03-23T22:47:40.301Z,99.90
2019-03-23T22:50:18.947Z,99.90
2019-03-23T22:53:01.628Z,99.90
2019-03-23T22:55:42.691Z,99.90
2019-03-23T22:58:22.574Z,99.90
2019-03-23T23:01:01.347Z,99.90
2019-03-23T23:03:44.328Z,99.90
2019-03-23T23:06:24.852Z,99.90
2019-03-23T23:09:06.170Z,99.90
2019-03-23T23:11:44.797Z,99.90
2019-03-23T23:14:28.410Z,99.90
2019-03-23T23:17:07.533Z,99.90
2019-03-23T23:19:46.063Z,99.90
2019-03-23T23:22:25.975Z,99.90
2019-03-23T23:25:05.712Z,99.90
2019-03-23T23:27:44.703Z,99.90
2019-03-23T23:30:23.586Z,99.90
2019-03-23T23:33:03.448Z,99.90
2019-03-23T23:35:44.874Z,99.90
2019-03-23T23:38:25.956Z,99.90
2019-03-23T23:41:06.526Z,99.90
2019-03-23T23:43:45.574Z,99.90
2019-03-23T23:46:31.654Z,99.90
2019-03-23T23:49:10.646Z,99.90
2019-03-23T23:51:50.304Z,99.90
2019-03-23T23:54:31.287Z,99.90
2019-03-23T23:57:10.965Z,99.90
2019-03-23T23:59:50.410Z,99.90
